Relevés horaires Beauvechain (Belgique)


Relevés horaires à Beauvechain - Mercredi 04 Juill. 2018
Heure UTC1 Température [°C] Vent [km/h] Hum. [%] Pres.4 [hPa] Visi. [Km] Nébu. [octa] Préc.5 [mm] Cond.
2m. Res. Ros. Dir.2 Vit. Moy. Raf.3
23:00 18.2 18.2 17.6 NO 3.7 -- 7.4 96 1013.5(0.6/3h) 5 -- -- NA
22:00 18.7 18.7 16.8 NO 3.7 -- 14.8 89 1014.1(1.0/3h) 20 -- -- NA
21:00 20.3 20.3 16.2 SO 11.1 -- 16.7 77 1014.2(1.2/3h) 20 -- -- Il y a de la pluie faible et continue à la station au moment de l'observation
20:00 22.6 22.6 16.6 NNO 1.9 -- 3.7 69 1012.6(-0.1/3h) 19 -- -- --
19:00 24.0 24.0 15.9 NNO 1.9 -- 5.6 61 1012.7(-0.1/3h) 20 -- -- --
18:00 24.6 24.6 15.2 E 3.7 -- 9.3 56 1012.7(-0.5/3h) 20 -- -- --
17:00 24.3 24.3 16.3 SE 5.6 -- 9.3 61 1012.7(-1.0/3h) 19 -- -- --
16:00 27.0 27.0 15.4 NNO 1.9 -- 7.4 49 1012.7(-1.0/3h) 20 6/8 -- --
15:00 28.4 28.4 14.9 NNO 3.7 -- 9.3 44 1013(-0.7/3h) 20 6/8 -- --
14:00 26.9 26.9 14.5 NNO 3.7 -- 7.4 47 1013.7(-0.4/3h) 20 6/8 -- --
13:00 26.8 26.8 14.3 NNO 1.9 -- 9.3 46 1013.7(-0.7/3h) 19 4/8 -- --
12:00 26.1 26.1 13.9 O 3.7 -- 9.3 47 1013.8(-0.8/3h) 19 3/8 -- --
11:00 25.8 25.8 14.3 NNO 3.7 -- 7.4 49 1014.2(-0.2/3h) 19 3/8 -- --
10:00 24.3 24.3 14.2 O 5.6 -- 9.3 53 1015.2(0.1/3h) 20 3/8 -- --
09:00 21.6 21.6 14.6 O 3.7 -- 9.3 64 1015(0.5/3h) 20 2/8 -- --
08:00 21.1 21.1 14.3 NNO 1.9 -- 3.7 65 1015.2(0.3/3h) 20 3/8 -- --
07:00 19.4 19.4 13.1 NNO 1.9 -- 3.7 67 1014.7(0.3/3h) 20 3/8 -- --
06:00 17.1 17.1 13.5 NNO 1.9 -- 3.7 79 1014.7(0.2/3h) 20 5/8 -- --
05:00 16.7 16.7 12.5 NNO 1.9 -- 1.9 76 1014.5(-0.4/3h) 20 6/8 -- --
04:00 16.7 16.7 12.3 NNO 1.9 -- 3.7 75 1014.5(-0.4/3h) 20 -- -- --
03:00 17.7 17.7 11.6 NNO 1.9 -- 3.7 67 1014.3(-0.8/3h) 20 -- -- --
02:00 17.2 17.2 11.9 NNO 1.9 -- 3.7 71 1014.7(-0.5/3h) 20 -- -- --
01:00 18.4 18.4 11.5 NNO 1.9 -- 3.7 64 1014.7(-0.4/3h) 20 -- -- --
00:00 18.2 18.2 11.2 NNO 1.9 -- 5.6 64 1015.2(0.0/3h) 20 -- -- --

1 Coordinated Universal Time. Actuellement il est 08:00 locale et 06:00 UTC.

2 Le vent souffle depuis la direction indiquée vers la direction oposée.

3 Les rafales max. sont disponible 40 min après l'heure du relevé.

4 Pour les stations d'altitude (plus de 600m) le géopotentiel du niveau le plus proche de la pression obligatoire est indiqué.

5 Les stations disposant d'un diffuseur peuvent indiquer "trace". Cela signifie que des précipitations ont touchés le sol mais que la quantité est inférieure à 0.1 mm.

Récapitulatif de la journée
Température [°C] Vent [km/h] Ensoleillement4 [h] Precipitations totale5 [mm] Pression [Hpa]
Min1 Max.2 Moy.3 Max. Min Max.
16.1 28.5 0 16.7 0 h 0 min 0 1012.6 1015.2

1 Température minimale relevée entre 18:00 UTC la veille et 18:00 UTC le jour donné.

2 Température maximale relevée entre 06:00 UTC le jour donné et 06:00 UTC le lendemain.

3 Vent moyen de la journée basé sur les relevés horaires.

4 Ensoleillement en heures relevé entre 06:00 UTC la veille et 06:00 UTC le jour donné.

5 Précipitations totales tombées entre 06:00 UTC la jour donné et 06:00 UTC le lendemain.

Graphiques horaires